createdAt,value
2019-04-26T00:00:27.965Z,91.30
2019-04-26T00:01:03.028Z,91.30
2019-04-26T00:01:38.090Z,91.30
2019-04-26T00:02:22.522Z,91.30
2019-04-26T00:02:57.587Z,91.40
2019-04-26T00:03:38.673Z,91.40
2019-04-26T00:04:14.078Z,91.40
2019-04-26T00:04:48.231Z,91.60
2019-04-26T00:05:33.706Z,91.50
2019-04-26T00:05:56.765Z,91.50
2019-04-26T00:06:30.187Z,91.50
2019-04-26T00:07:03.609Z,91.60
2019-04-26T00:07:37.540Z,91.60
2019-04-26T00:08:11.811Z,91.60
2019-04-26T00:08:47.222Z,91.60
2019-04-26T00:09:29.000Z,91.60
2019-04-26T00:10:04.069Z,91.60
2019-04-26T00:10:45.246Z,91.60
2019-04-26T00:11:23.288Z,91.60
2019-04-26T00:12:01.157Z,91.60
2019-04-26T00:12:41.815Z,91.50
2019-04-26T00:13:25.718Z,91.50
2019-04-26T00:14:07.056Z,91.50
2019-04-26T00:14:41.431Z,91.50
2019-04-26T00:15:25.457Z,91.40
2019-04-26T00:16:06.940Z,91.60
2019-04-26T00:16:53.806Z,91.70
2019-04-26T00:17:29.470Z,91.70
2019-04-26T00:18:04.968Z,91.70
2019-04-26T00:18:39.540Z,91.70
2019-04-26T00:19:13.785Z,91.80
2019-04-26T00:19:47.543Z,91.80
2019-04-26T00:20:21.372Z,91.90
2019-04-26T00:20:54.795Z,91.90
2019-04-26T00:21:28.236Z,91.80
2019-04-26T00:22:02.182Z,91.90
2019-04-26T00:22:35.975Z,91.80
2019-04-26T00:23:10.632Z,91.70
2019-04-26T00:23:44.119Z,91.70
2019-04-26T00:24:18.018Z,91.70
2019-04-26T00:24:51.440Z,91.70
2019-04-26T00:25:24.863Z,91.70
2019-04-26T00:25:58.297Z,91.70
2019-04-26T00:26:31.717Z,91.90
2019-04-26T00:27:05.238Z,91.90
2019-04-26T00:27:38.673Z,91.80
2019-04-26T00:28:12.832Z,91.80
2019-04-26T00:28:46.430Z,91.90
2019-04-26T00:29:19.843Z,91.90
2019-04-26T00:29:53.267Z,91.90
2019-04-26T00:30:26.694Z,91.90
2019-04-26T00:31:00.169Z,92.00
2019-04-26T00:31:33.578Z,92.00
2019-04-26T00:32:07.005Z,92.00
2019-04-26T00:32:40.452Z,92.00
2019-04-26T00:33:13.899Z,92.10
2019-04-26T00:33:47.320Z,92.20
2019-04-26T00:34:21.650Z,92.20
2019-04-26T00:34:55.363Z,92.30
2019-04-26T00:35:28.783Z,92.30
2019-04-26T00:36:02.272Z,92.30
2019-04-26T00:36:35.698Z,92.20
2019-04-26T00:37:09.114Z,92.20
2019-04-26T00:37:42.531Z,92.10
2019-04-26T00:38:16.133Z,92.10
2019-04-26T00:38:49.725Z,92.10
2019-04-26T00:39:24.914Z,92.10
2019-04-26T00:39:58.223Z,92.20
2019-04-26T00:40:31.643Z,92.10
2019-04-26T00:41:05.064Z,92.10
2019-04-26T00:41:38.662Z,92.10
2019-04-26T00:42:13.138Z,92.20
2019-04-26T00:42:47.216Z,92.30
2019-04-26T00:43:20.643Z,92.30
2019-04-26T00:43:54.098Z,92.30
2019-04-26T00:44:27.539Z,92.30
2019-04-26T00:45:00.983Z,92.40
2019-04-26T00:45:34.404Z,92.40
2019-04-26T00:46:07.831Z,92.40
2019-04-26T00:46:41.261Z,92.40
2019-04-26T00:47:15.238Z,92.50
2019-04-26T00:47:48.901Z,92.50
2019-04-26T00:48:23.227Z,92.60
2019-04-26T00:48:57.119Z,92.60
2019-04-26T00:49:42.742Z,92.50
2019-04-26T00:50:07.572Z,92.50
2019-04-26T00:50:40.993Z,92.60
2019-04-26T00:51:15.263Z,92.60
2019-04-26T00:51:48.905Z,92.60
2019-04-26T00:52:22.332Z,92.50
2019-04-26T00:52:55.836Z,92.50
2019-04-26T00:53:29.344Z,92.50
2019-04-26T00:54:02.765Z,92.60
2019-04-26T00:54:36.194Z,92.60
2019-04-26T00:55:09.627Z,92.70
2019-04-26T00:55:43.069Z,92.70
2019-04-26T00:56:16.490Z,92.70
2019-04-26T00:56:50.385Z,92.80
2019-04-26T00:57:24.418Z,92.80
2019-04-26T00:57:58.055Z,92.80
2019-04-26T00:58:33.546Z,92.80
2019-04-26T00:59:07.196Z,92.80
2019-04-26T00:59:40.608Z,92.80
2019-04-26T01:00:16.885Z,92.90
2019-04-26T01:00:50.760Z,92.90
2019-04-26T01:01:25.183Z,93.00
2019-04-26T01:02:00.243Z,93.00
2019-04-26T01:02:44.082Z,92.90
2019-04-26T01:03:18.536Z,93.00
2019-04-26T01:03:52.020Z,93.00
2019-04-26T01:04:25.441Z,93.00
2019-04-26T01:04:58.864Z,93.00
2019-04-26T01:05:33.926Z,93.10
2019-04-26T01:06:09.008Z,93.10
2019-04-26T01:06:44.089Z,93.50
2019-04-26T01:07:17.516Z,93.20
2019-04-26T01:07:52.580Z,93.20
2019-04-26T01:08:26.000Z,93.20
2019-04-26T01:08:59.419Z,93.30
2019-04-26T01:09:32.842Z,93.40
2019-04-26T01:10:06.264Z,93.40
2019-04-26T01:10:39.690Z,93.40
2019-04-26T01:11:13.104Z,93.30
2019-04-26T01:11:46.549Z,93.30
2019-04-26T01:12:19.987Z,93.30
2019-04-26T01:12:53.403Z,93.30
2019-04-26T01:13:26.819Z,93.30
2019-04-26T01:14:00.235Z,93.40
2019-04-26T01:14:33.666Z,93.40
2019-04-26T01:15:07.156Z,93.30
2019-04-26T01:15:40.568Z,93.30
2019-04-26T01:16:14.005Z,93.30
2019-04-26T01:16:47.419Z,93.20
2019-04-26T01:17:20.864Z,93.20
2019-04-26T01:17:54.304Z,93.20
2019-04-26T01:18:27.742Z,93.30
2019-04-26T01:19:01.140Z,93.30
2019-04-26T01:19:34.559Z,93.30
2019-04-26T01:20:07.997Z,93.30
2019-04-26T01:20:41.416Z,93.40
2019-04-26T01:21:17.204Z,93.50
2019-04-26T01:21:52.991Z,93.60
2019-04-26T01:22:29.825Z,93.50
2019-04-26T01:23:04.819Z,94.00
2019-04-26T01:23:38.265Z,93.60
2019-04-26T01:24:11.688Z,93.60
2019-04-26T01:24:45.095Z,93.60
2019-04-26T01:25:30.701Z,93.60
2019-04-26T01:26:17.719Z,93.50
2019-04-26T01:26:51.290Z,93.40
2019-04-26T01:27:25.491Z,93.50
2019-04-26T01:27:59.204Z,93.60
2019-04-26T01:28:38.987Z,93.50
2019-04-26T01:29:12.426Z,93.50
2019-04-26T01:29:45.852Z,93.50
2019-04-26T01:30:19.651Z,93.60
2019-04-26T01:30:53.461Z,93.60
2019-04-26T01:31:28.136Z,93.60
2019-04-26T01:32:05.250Z,93.60
2019-04-26T01:32:38.672Z,93.60
2019-04-26T01:33:12.093Z,93.60
2019-04-26T01:33:45.511Z,93.50
2019-04-26T01:34:19.256Z,93.50
2019-04-26T01:34:54.004Z,93.60
2019-04-26T01:35:28.352Z,93.50
2019-04-26T01:36:12.388Z,93.50
2019-04-26T01:36:36.903Z,93.50
2019-04-26T01:37:10.803Z,93.50
2019-04-26T01:37:44.219Z,93.40
2019-04-26T01:38:17.636Z,93.40
2019-04-26T01:38:51.621Z,93.50
2019-04-26T01:39:25.803Z,93.50
2019-04-26T01:40:03.956Z,93.50
2019-04-26T01:40:37.770Z,93.90
2019-04-26T01:41:12.829Z,93.60
2019-04-26T01:41:48.360Z,93.60
2019-04-26T01:42:24.262Z,93.60
2019-04-26T01:43:11.623Z,93.60
2019-04-26T01:43:49.355Z,93.60
2019-04-26T01:44:42.840Z,93.50
2019-04-26T01:45:21.765Z,93.70
2019-04-26T01:46:06.189Z,93.80
2019-04-26T01:46:41.250Z,93.80
2019-04-26T01:47:14.738Z,93.80
2019-04-26T01:47:48.234Z,94.00
2019-04-26T01:48:42.573Z,94.00
2019-04-26T01:49:15.987Z,94.00
2019-04-26T01:49:49.413Z,94.00
2019-04-26T01:50:23.582Z,94.00
2019-04-26T01:50:57.357Z,94.00
2019-04-26T01:51:34.053Z,93.90
2019-04-26T01:52:10.730Z,93.90
2019-04-26T01:52:44.152Z,93.90
2019-04-26T01:53:17.567Z,94.00
2019-04-26T01:53:51.795Z,94.10
2019-04-26T01:54:28.556Z,94.10
2019-04-26T01:55:01.991Z,94.20
2019-04-26T01:55:35.395Z,94.10
2019-04-26T01:56:08.841Z,94.10
2019-04-26T01:56:42.278Z,94.10
2019-04-26T01:57:15.707Z,94.10
2019-04-26T01:57:49.122Z,94.10
2019-04-26T01:58:23.264Z,94.20
2019-04-26T01:58:56.872Z,94.40
2019-04-26T01:59:31.477Z,94.40
2019-04-26T02:00:14.888Z,94.40
2019-04-26T02:00:52.822Z,94.40
2019-04-26T02:01:44.409Z,94.40
2019-04-26T02:02:19.499Z,94.30
2019-04-26T02:02:54.555Z,94.30
2019-04-26T02:03:30.575Z,94.30
2019-04-26T02:04:03.991Z,94.30
2019-04-26T02:04:42.015Z,94.40
2019-04-26T02:05:19.890Z,94.40
2019-04-26T02:05:53.379Z,94.30
2019-04-26T02:06:31.220Z,94.30
2019-04-26T02:07:01.880Z,94.30
2019-04-26T02:07:38.408Z,94.40
2019-04-26T02:08:11.831Z,94.40
2019-04-26T02:08:45.269Z,94.30
2019-04-26T02:09:19.147Z,94.30
2019-04-26T02:09:52.571Z,94.30
2019-04-26T02:10:28.564Z,94.30
2019-04-26T02:11:02.182Z,94.30
2019-04-26T02:11:35.600Z,94.30
2019-04-26T02:12:09.071Z,94.20
2019-04-26T02:12:44.398Z,94.30
2019-04-26T02:13:17.843Z,94.40
2019-04-26T02:13:51.258Z,94.40
2019-04-26T02:14:25.283Z,94.50
2019-04-26T02:14:58.701Z,94.50
2019-04-26T02:15:33.498Z,94.60
2019-04-26T02:16:07.184Z,94.70
2019-04-26T02:16:40.605Z,94.70
2019-04-26T02:17:14.031Z,94.80
2019-04-26T02:17:48.491Z,94.80
2019-04-26T02:18:23.865Z,94.80
2019-04-26T02:18:57.017Z,94.70
2019-04-26T02:19:31.593Z,94.70
2019-04-26T02:20:07.001Z,94.70
2019-04-26T02:20:53.555Z,94.70
2019-04-26T02:21:29.787Z,94.70
2019-04-26T02:22:05.367Z,94.80
2019-04-26T02:22:43.190Z,94.80
2019-04-26T02:23:18.258Z,94.80
2019-04-26T02:23:53.336Z,95.20
2019-04-26T02:24:28.896Z,94.90
2019-04-26T02:25:02.509Z,95.00
2019-04-26T02:25:35.927Z,95.00
2019-04-26T02:26:28.288Z,95.00
2019-04-26T02:27:03.473Z,95.10
2019-04-26T02:27:36.919Z,95.10
2019-04-26T02:28:10.320Z,95.10
2019-04-26T02:28:43.754Z,95.10
2019-04-26T02:29:27.040Z,95.10
2019-04-26T02:30:00.767Z,95.10
2019-04-26T02:30:35.215Z,95.10
2019-04-26T02:31:09.277Z,95.10
2019-04-26T02:31:43.237Z,95.20
2019-04-26T02:32:16.655Z,95.10
2019-04-26T02:32:50.074Z,95.20
2019-04-26T02:33:23.509Z,95.10
2019-04-26T02:33:56.918Z,95.10
2019-04-26T02:34:31.758Z,95.20
2019-04-26T02:35:06.612Z,95.20
2019-04-26T02:35:40.032Z,95.30
2019-04-26T02:36:13.453Z,95.30
2019-04-26T02:36:57.922Z,95.40
2019-04-26T02:37:21.958Z,95.40
2019-04-26T02:37:55.375Z,95.40
2019-04-26T02:38:30.701Z,95.40
2019-04-26T02:39:06.955Z,95.40
2019-04-26T02:39:40.914Z,95.50
2019-04-26T02:40:14.974Z,95.50
2019-04-26T02:40:49.065Z,95.50
2019-04-26T02:41:22.569Z,95.50
2019-04-26T02:41:59.489Z,95.60
2019-04-26T02:42:37.745Z,95.60
2019-04-26T02:43:11.249Z,95.70
2019-04-26T02:43:44.659Z,95.70
2019-04-26T02:44:21.787Z,95.70
2019-04-26T02:45:22.641Z,95.70
2019-04-26T02:46:00.453Z,95.80
2019-04-26T02:46:47.151Z,95.70
2019-04-26T02:47:38.548Z,95.70
2019-04-26T02:48:18.707Z,95.70
2019-04-26T02:48:59.926Z,95.70
2019-04-26T02:49:36.634Z,95.70
2019-04-26T02:50:22.270Z,95.70
2019-04-26T02:51:01.852Z,95.80
2019-04-26T02:51:53.713Z,95.70
2019-04-26T02:52:39.296Z,95.70
2019-04-26T02:53:35.360Z,95.60
2019-04-26T02:54:18.579Z,95.60
2019-04-26T02:54:57.857Z,95.50
2019-04-26T02:56:04.558Z,95.60
2019-04-26T02:56:40.474Z,95.70
2019-04-26T02:57:30.995Z,95.70
2019-04-26T02:58:04.549Z,95.70
2019-04-26T02:58:50.208Z,95.70
2019-04-26T02:59:36.791Z,95.70
2019-04-26T03:00:14.833Z,95.80
2019-04-26T03:00:48.320Z,95.70
2019-04-26T03:01:21.757Z,95.80
2019-04-26T03:01:55.168Z,95.80
2019-04-26T03:02:32.271Z,95.70
2019-04-26T03:03:05.780Z,95.70
2019-04-26T03:03:39.753Z,95.70
2019-04-26T03:04:13.453Z,95.70
2019-04-26T03:04:46.879Z,95.70
2019-04-26T03:05:20.304Z,95.70
2019-04-26T03:05:53.723Z,95.70
2019-04-26T03:06:30.043Z,95.70
2019-04-26T03:07:05.544Z,95.80
2019-04-26T03:07:44.855Z,95.90
2019-04-26T03:08:19.443Z,95.90
2019-04-26T03:08:53.148Z,95.90
2019-04-26T03:09:27.013Z,95.90
2019-04-26T03:10:00.434Z,96.00
2019-04-26T03:10:36.845Z,96.00
2019-04-26T03:11:17.256Z,96.00
2019-04-26T03:12:07.665Z,96.00
2019-04-26T03:12:43.009Z,96.00
2019-04-26T03:13:19.034Z,96.00
2019-04-26T03:13:57.086Z,96.00
2019-04-26T03:14:32.986Z,96.10
2019-04-26T03:15:14.071Z,96.20
2019-04-26T03:15:51.723Z,96.20
2019-04-26T03:16:35.168Z,96.30
2019-04-26T03:17:26.284Z,96.40
2019-04-26T03:18:19.399Z,96.40
2019-04-26T03:19:03.352Z,96.40
2019-04-26T03:19:47.614Z,96.40
2019-04-26T03:20:24.565Z,96.40
2019-04-26T03:21:10.099Z,96.50
2019-04-26T03:21:55.708Z,96.50
2019-04-26T03:22:50.073Z,96.60
2019-04-26T03:23:53.279Z,96.60
2019-04-26T03:24:38.629Z,96.40
2019-04-26T03:25:27.105Z,96.70
2019-04-26T03:26:09.288Z,96.80
2019-04-26T03:26:54.494Z,96.80
2019-04-26T03:27:43.033Z,96.80
2019-04-26T03:28:41.625Z,96.80
2019-04-26T03:29:32.904Z,96.70
2019-04-26T03:30:26.406Z,96.70
2019-04-26T03:31:12.017Z,96.70
2019-04-26T03:31:54.242Z,96.70
2019-04-26T03:32:40.828Z,96.60
2019-04-26T03:33:29.879Z,96.70
2019-04-26T03:34:38.511Z,96.70
2019-04-26T03:35:27.983Z,96.60
2019-04-26T03:36:09.158Z,96.60
2019-04-26T03:37:20.707Z,96.70
2019-04-26T03:37:55.538Z,96.70
2019-04-26T03:38:43.573Z,96.70
2019-04-26T03:39:36.113Z,96.70
2019-04-26T03:40:32.574Z,96.70
2019-04-26T03:41:29.272Z,96.80
2019-04-26T03:42:16.663Z,96.70
2019-04-26T03:43:05.293Z,96.80
2019-04-26T03:43:44.688Z,96.70
2019-04-26T03:44:38.860Z,96.80
2019-04-26T03:45:40.352Z,96.70
2019-04-26T03:46:33.573Z,96.70
2019-04-26T03:47:08.613Z,96.70
2019-04-26T03:47:48.127Z,96.80
2019-04-26T03:48:37.934Z,96.80
2019-04-26T03:49:23.625Z,96.90
2019-04-26T03:50:03.293Z,96.90
2019-04-26T03:50:49.058Z,96.90
2019-04-26T03:52:00.481Z,97.00
2019-04-26T03:52:58.270Z,97.00
2019-04-26T03:53:39.750Z,97.10
2019-04-26T03:54:19.725Z,97.10
2019-04-26T03:55:02.261Z,97.10
2019-04-26T03:55:43.263Z,97.10
2019-04-26T03:56:29.130Z,97.10
2019-04-26T03:57:07.443Z,97.10
2019-04-26T03:57:46.169Z,97.10
2019-04-26T03:58:51.693Z,97.10
2019-04-26T03:59:44.256Z,97.10
2019-04-26T04:00:25.989Z,97.20
2019-04-26T04:01:12.930Z,97.20
2019-04-26T04:02:06.321Z,97.30
2019-04-26T04:02:47.461Z,97.40
2019-04-26T04:03:28.713Z,97.40
2019-04-26T04:04:03.795Z,97.40
2019-04-26T04:04:43.263Z,97.40
2019-04-26T04:05:24.216Z,97.40
2019-04-26T04:05:58.905Z,97.40
2019-04-26T04:06:48.927Z,97.40
2019-04-26T04:07:09.499Z,97.40
2019-04-26T04:07:48.082Z,97.40
2019-04-26T04:08:20.766Z,97.40
2019-04-26T04:09:09.009Z,97.40
2019-04-26T04:09:46.786Z,97.30
2019-04-26T04:10:47.809Z,97.30
2019-04-26T04:11:27.323Z,97.30
2019-04-26T04:12:11.639Z,97.30
2019-04-26T04:12:51.036Z,97.20
2019-04-26T04:13:42.954Z,97.30
2019-04-26T04:14:33.240Z,97.30
2019-04-26T04:15:15.903Z,97.20
2019-04-26T04:15:51.079Z,97.20
2019-04-26T04:16:28.023Z,97.20
2019-04-26T04:17:06.190Z,97.20
2019-04-26T04:17:51.565Z,97.30
2019-04-26T04:18:25.317Z,97.30
2019-04-26T04:19:10.817Z,97.20
2019-04-26T04:20:07.172Z,97.20
2019-04-26T04:21:10.861Z,97.20
2019-04-26T04:21:57.384Z,97.30
2019-04-26T04:22:43.941Z,97.30
2019-04-26T04:23:26.933Z,97.30
2019-04-26T04:24:07.841Z,97.20
2019-04-26T04:24:43.557Z,97.20
2019-04-26T04:25:32.046Z,97.20
2019-04-26T04:26:05.460Z,97.20
2019-04-26T04:27:02.776Z,97.20
2019-04-26T04:27:45.941Z,97.20
2019-04-26T04:28:54.863Z,97.10
2019-04-26T04:29:47.183Z,97.10
2019-04-26T04:30:38.656Z,97.10
2019-04-26T04:31:40.498Z,97.10
2019-04-26T04:32:35.647Z,97.10
2019-04-26T04:33:30.830Z,97.10
2019-04-26T04:34:06.943Z,97.00
2019-04-26T04:34:45.589Z,97.10
2019-04-26T04:35:20.674Z,97.10
2019-04-26T04:35:56.993Z,97.10
2019-04-26T04:36:33.676Z,97.10
2019-04-26T04:37:07.091Z,97.10
2019-04-26T04:38:05.940Z,97.10
2019-04-26T04:38:40.855Z,97.10
2019-04-26T04:39:23.562Z,97.00
2019-04-26T04:40:07.377Z,97.00
2019-04-26T04:41:12.839Z,97.00
2019-04-26T04:42:06.073Z,97.00
2019-04-26T04:42:45.748Z,97.00
2019-04-26T04:43:27.219Z,96.90
2019-04-26T04:44:39.122Z,96.90
2019-04-26T04:45:42.536Z,96.80
2019-04-26T04:46:33.497Z,96.80
2019-04-26T04:47:24.508Z,96.80
2019-04-26T04:48:19.160Z,96.70
2019-04-26T04:49:09.370Z,96.60
2019-04-26T04:50:01.756Z,96.60
2019-04-26T04:50:40.958Z,96.60
2019-04-26T04:51:36.228Z,96.60
2019-04-26T04:52:26.817Z,96.40
2019-04-26T04:53:15.275Z,96.30
2019-04-26T04:54:11.538Z,96.30
2019-04-26T04:55:07.785Z,96.30
2019-04-26T04:55:50.155Z,96.30
2019-04-26T04:56:45.713Z,96.20
2019-04-26T04:57:37.355Z,96.20
2019-04-26T04:58:18.692Z,96.10
2019-04-26T04:58:56.869Z,96.00
2019-04-26T05:00:09.815Z,95.90
2019-04-26T05:00:53.677Z,95.80
2019-04-26T05:01:50.371Z,95.70
2019-04-26T05:02:43.929Z,95.60
2019-04-26T05:03:31.466Z,95.40
2019-04-26T05:04:09.781Z,95.30
2019-04-26T05:05:15.030Z,95.30
2019-04-26T05:06:06.654Z,95.20
2019-04-26T05:06:45.035Z,95.30
2019-04-26T05:07:38.155Z,95.10
2019-04-26T05:08:17.658Z,95.00
2019-04-26T05:09:06.912Z,94.90
2019-04-26T05:10:03.269Z,94.90
2019-04-26T05:10:39.946Z,94.70
2019-04-26T05:11:25.434Z,94.80
2019-04-26T05:12:04.573Z,94.50
2019-04-26T05:12:50.002Z,94.40
2019-04-26T05:13:26.828Z,94.80
2019-04-26T05:14:32.064Z,94.30
2019-04-26T05:15:10.394Z,94.10
2019-04-26T05:16:09.091Z,93.90
2019-04-26T05:17:00.029Z,93.90
2019-04-26T05:17:49.534Z,93.90
2019-04-26T05:18:32.458Z,93.90
2019-04-26T05:19:27.935Z,93.50
2019-04-26T05:20:13.211Z,93.40
2019-04-26T05:20:49.892Z,93.20
2019-04-26T05:21:29.197Z,93.20
2019-04-26T05:22:30.277Z,93.10
2019-04-26T05:23:23.269Z,92.80
2019-04-26T05:24:18.384Z,93.00
2019-04-26T05:25:14.884Z,92.80
2019-04-26T05:26:15.553Z,92.70
2019-04-26T05:27:12.640Z,92.80
2019-04-26T05:27:59.585Z,92.60
2019-04-26T05:28:47.513Z,92.40
2019-04-26T05:29:29.053Z,92.30
2019-04-26T05:30:29.489Z,92.20
2019-04-26T05:31:32.943Z,92.10
2019-04-26T05:32:25.121Z,91.90
2019-04-26T05:33:16.931Z,91.80
2019-04-26T05:34:10.535Z,91.70
2019-04-26T05:35:00.563Z,91.50
2019-04-26T05:35:55.272Z,91.30
2019-04-26T05:36:31.950Z,91.10
2019-04-26T05:37:20.180Z,91.20
2019-04-26T05:38:18.358Z,90.90
2019-04-26T05:38:53.252Z,90.70
2019-04-26T05:39:36.263Z,90.60
2019-04-26T05:40:47.037Z,90.60
2019-04-26T05:41:42.489Z,90.60
2019-04-26T05:42:37.353Z,90.30
2019-04-26T05:43:35.855Z,90.10
2019-04-26T05:44:30.715Z,90.10
2019-04-26T05:45:18.107Z,90.10
2019-04-26T05:46:05.032Z,90.00
2019-04-26T05:46:59.566Z,89.90
2019-04-26T05:48:03.137Z,89.50
2019-04-26T05:48:59.789Z,88.50
2019-04-26T05:49:54.132Z,88.50
2019-04-26T05:51:08.204Z,88.30
2019-04-26T05:52:25.289Z,88.90
2019-04-26T05:53:12.571Z,88.70
2019-04-26T05:54:13.468Z,87.70
2019-04-26T05:55:00.197Z,87.70
2019-04-26T05:55:56.044Z,87.50
2019-04-26T05:56:58.408Z,87.20
2019-04-26T05:57:52.574Z,86.80
2019-04-26T05:58:43.814Z,86.80
2019-04-26T05:59:29.202Z,87.10
2019-04-26T06:00:24.617Z,87.20
2019-04-26T06:01:28.128Z,85.80
2019-04-26T06:02:06.427Z,85.60
2019-04-26T06:02:59.188Z,85.40
2019-04-26T06:03:49.642Z,85.30
2019-04-26T06:04:34.594Z,84.90
2019-04-26T06:05:20.877Z,85.10
2019-04-26T06:06:05.456Z,84.40
2019-04-26T06:06:46.649Z,84.20
2019-04-26T06:07:36.647Z,83.60
2019-04-26T06:08:37.261Z,83.90
2019-04-26T06:09:17.330Z,83.80
2019-04-26T06:10:13.433Z,83.60
2019-04-26T06:10:52.722Z,83.20
2019-04-26T06:11:33.932Z,83.30
2019-04-26T06:12:37.092Z,82.70
2019-04-26T06:13:20.665Z,82.60
2019-04-26T06:14:46.260Z,81.90
2019-04-26T06:16:11.457Z,81.60
2019-04-26T06:17:05.758Z,81.00
2019-04-26T06:18:01.843Z,81.80
2019-04-26T06:19:08.226Z,81.00
2019-04-26T06:20:02.548Z,80.90
2019-04-26T06:20:45.145Z,80.10
2019-04-26T06:21:43.887Z,79.80
2019-04-26T06:22:41.363Z,79.20
2019-04-26T06:23:26.829Z,79.40
2019-04-26T06:24:21.216Z,79.40
2019-04-26T06:25:08.106Z,78.50
2019-04-26T06:25:54.852Z,78.70
2019-04-26T06:26:54.267Z,78.90
2019-04-26T06:27:50.573Z,78.20
2019-04-26T06:28:43.615Z,78.10
2019-04-26T06:29:32.821Z,77.70
2019-04-26T06:30:12.700Z,77.50
2019-04-26T06:30:59.314Z,77.10
2019-04-26T06:31:51.042Z,77.10
2019-04-26T06:32:30.397Z,77.10
2019-04-26T06:33:10.381Z,76.70
2019-04-26T06:33:49.782Z,76.20
2019-04-26T06:34:59.420Z,76.30
2019-04-26T06:35:34.932Z,76.30
2019-04-26T06:36:10.021Z,76.20
2019-04-26T06:36:48.321Z,76.20
2019-04-26T06:37:26.641Z,75.90
2019-04-26T06:38:19.455Z,76.10
2019-04-26T06:39:17.322Z,75.50
2019-04-26T06:40:02.687Z,75.10
2019-04-26T06:40:55.957Z,74.80
2019-04-26T06:42:05.581Z,74.50
2019-04-26T06:42:50.945Z,73.90
2019-04-26T06:43:26.650Z,73.70
2019-04-26T06:44:16.281Z,73.90
2019-04-26T06:45:28.171Z,73.30
2019-04-26T06:46:47.407Z,73.20
2019-04-26T06:47:30.560Z,73.50
2019-04-26T06:48:25.813Z,73.90
2019-04-26T06:49:19.758Z,73.00
2019-04-26T06:50:12.084Z,73.30
2019-04-26T06:50:54.241Z,72.30
2019-04-26T06:51:33.853Z,72.40
2019-04-26T06:52:12.697Z,72.30
2019-04-26T06:52:58.140Z,72.30
2019-04-26T06:54:03.512Z,72.20
2019-04-26T06:54:48.847Z,71.80
2019-04-26T06:55:23.927Z,71.10
2019-04-26T06:56:13.025Z,70.50
2019-04-26T06:57:11.565Z,70.20
2019-04-26T06:58:07.234Z,70.20
2019-04-26T06:59:17.295Z,70.50
2019-04-26T07:00:10.368Z,70.10
2019-04-26T07:00:50.398Z,69.80
2019-04-26T07:01:38.314Z,69.80
2019-04-26T07:02:23.770Z,70.40
2019-04-26T07:03:21.460Z,68.70
2019-04-26T07:04:18.172Z,69.10
2019-04-26T07:05:21.581Z,69.40
2019-04-26T07:06:02.511Z,69.20
2019-04-26T07:06:53.361Z,68.60
2019-04-26T07:07:30.030Z,68.80
2019-04-26T07:08:23.091Z,68.00
2019-04-26T07:09:11.537Z,68.10
2019-04-26T07:10:00.291Z,67.80
2019-04-26T07:10:48.769Z,67.30
2019-04-26T07:11:53.878Z,67.50
2019-04-26T07:12:49.568Z,67.50
2019-04-26T07:13:52.940Z,67.10
2019-04-26T07:14:45.884Z,66.90
2019-04-26T07:15:28.668Z,67.00
2019-04-26T07:16:30.096Z,66.40
2019-04-26T07:17:09.539Z,66.30
2019-04-26T07:18:10.800Z,65.90
2019-04-26T07:19:05.606Z,65.40
2019-04-26T07:20:03.263Z,65.70
2019-04-26T07:20:56.795Z,65.70
2019-04-26T07:22:10.891Z,65.70
2019-04-26T07:23:14.250Z,66.00
2019-04-26T07:24:14.995Z,64.30
2019-04-26T07:24:56.258Z,64.30
2019-04-26T07:25:51.040Z,64.60
2019-04-26T07:26:36.670Z,63.70
2019-04-26T07:27:13.349Z,63.20
2019-04-26T07:28:03.222Z,63.60
2019-04-26T07:28:49.617Z,63.20
2019-04-26T07:30:01.600Z,63.50
2019-04-26T07:30:52.349Z,62.90
2019-04-26T07:31:46.168Z,63.00
2019-04-26T07:32:45.456Z,63.30
2019-04-26T07:33:48.516Z,63.20
2019-04-26T07:34:41.917Z,62.60
2019-04-26T07:35:27.153Z,62.50
2019-04-26T07:36:09.723Z,61.40
2019-04-26T07:37:15.096Z,61.10
2019-04-26T07:38:06.889Z,61.50
2019-04-26T07:39:15.703Z,61.60
2019-04-26T07:40:07.803Z,60.80
2019-04-26T07:41:09.367Z,60.70
2019-04-26T07:42:16.004Z,60.80
2019-04-26T07:43:26.506Z,60.20
2019-04-26T07:44:16.623Z,59.40
2019-04-26T07:45:25.125Z,58.30
2019-04-26T07:46:26.349Z,59.20
2019-04-26T07:47:17.692Z,57.90
2019-04-26T07:48:19.011Z,57.80
2019-04-26T07:49:10.714Z,57.90
2019-04-26T07:50:18.732Z,57.50
2019-04-26T07:51:10.008Z,57.30
2019-04-26T07:52:18.137Z,57.00
2019-04-26T07:52:54.807Z,56.90
2019-04-26T07:53:31.492Z,56.60
2019-04-26T07:54:24.528Z,57.10
2019-04-26T07:55:19.474Z,57.40
2019-04-26T07:56:11.361Z,57.50
2019-04-26T07:57:06.612Z,56.70
2019-04-26T07:57:49.239Z,56.80
2019-04-26T07:59:02.774Z,56.30
2019-04-26T07:59:50.222Z,55.70
2019-04-26T08:00:48.820Z,55.90
2019-04-26T08:01:51.757Z,56.30
2019-04-26T08:02:46.361Z,56.30
2019-04-26T08:03:27.026Z,56.10
2019-04-26T08:04:05.302Z,56.40
2019-04-26T08:04:41.990Z,55.80
2019-04-26T08:05:25.641Z,55.60
2019-04-26T08:06:02.947Z,55.50
2019-04-26T08:06:51.293Z,55.50
2019-04-26T08:07:26.974Z,55.30
2019-04-26T08:08:02.209Z,55.20
2019-04-26T08:08:38.884Z,55.00
2019-04-26T08:09:25.077Z,54.70
2019-04-26T08:09:59.723Z,55.00
2019-04-26T08:10:26.241Z,54.80
2019-04-26T08:11:06.243Z,54.90
2019-04-26T08:11:51.091Z,54.90
2019-04-26T08:12:26.191Z,54.50
2019-04-26T08:13:13.469Z,54.60
2019-04-26T08:13:55.955Z,55.00
2019-04-26T08:14:33.931Z,55.00
2019-04-26T08:15:11.679Z,54.50
2019-04-26T08:15:55.483Z,54.60
2019-04-26T08:16:33.246Z,54.50
2019-04-26T08:17:16.628Z,54.70
2019-04-26T08:18:01.781Z,54.70
2019-04-26T08:18:37.795Z,54.60
2019-04-26T08:19:19.632Z,54.10
2019-04-26T08:20:09.261Z,54.20
2019-04-26T08:20:49.596Z,54.80
2019-04-26T08:21:32.052Z,54.80
2019-04-26T08:22:17.963Z,53.70
2019-04-26T08:22:40.818Z,53.60
2019-04-26T08:23:37.268Z,53.40
2019-04-26T08:23:56.425Z,53.70
2019-04-26T08:24:28.601Z,53.70
2019-04-26T08:25:02.102Z,53.70
2019-04-26T08:25:35.988Z,53.60
2019-04-26T08:26:13.286Z,53.40
2019-04-26T08:26:49.805Z,53.90
2019-04-26T08:27:24.905Z,53.60
2019-04-26T08:27:58.505Z,53.40
2019-04-26T08:28:33.478Z,53.00
2019-04-26T08:29:07.080Z,53.00
2019-04-26T08:29:40.853Z,52.30
2019-04-26T08:30:17.780Z,52.80
2019-04-26T08:30:50.616Z,53.00
2019-04-26T08:31:25.599Z,53.00
2019-04-26T08:31:59.161Z,53.20
2019-04-26T08:32:36.024Z,53.50
2019-04-26T08:33:12.793Z,53.00
2019-04-26T08:33:48.754Z,53.70
2019-04-26T08:34:28.833Z,53.50
2019-04-26T08:35:02.403Z,53.30
2019-04-26T08:35:35.837Z,53.30
2019-04-26T08:36:10.491Z,52.80
2019-04-26T08:36:57.243Z,52.80
2019-04-26T08:37:36.613Z,52.80
2019-04-26T08:38:15.959Z,52.70
2019-04-26T08:38:43.828Z,53.10
2019-04-26T08:39:24.502Z,52.60
2019-04-26T08:39:57.051Z,52.90
2019-04-26T08:40:31.468Z,52.80
2019-04-26T08:41:07.119Z,52.80
2019-04-26T08:41:42.055Z,53.00
2019-04-26T08:42:20.841Z,52.90
2019-04-26T08:43:04.255Z,53.00
2019-04-26T08:43:55.917Z,52.90
2019-04-26T08:44:51.020Z,52.40
2019-04-26T08:45:34.166Z,52.50
2019-04-26T08:46:21.089Z,53.20
2019-04-26T08:47:14.238Z,53.00
2019-04-26T08:48:03.095Z,52.70
2019-04-26T08:48:52.641Z,53.20
2019-04-26T08:49:40.059Z,53.00
2019-04-26T08:50:17.786Z,53.40
2019-04-26T08:50:52.648Z,53.50
2019-04-26T08:51:26.180Z,53.10
2019-04-26T08:51:59.596Z,52.70
2019-04-26T08:52:34.042Z,52.10
2019-04-26T08:53:07.563Z,52.30
2019-04-26T08:53:40.975Z,52.40
2019-04-26T08:54:18.594Z,51.90
2019-04-26T08:54:53.640Z,52.10
2019-04-26T08:55:27.129Z,52.80
2019-04-26T08:56:00.548Z,51.30
2019-04-26T08:56:36.089Z,51.30
2019-04-26T08:57:09.589Z,50.90
2019-04-26T08:57:43.002Z,50.80
2019-04-26T08:58:17.420Z,51.00
2019-04-26T08:58:51.443Z,50.80
2019-04-26T08:59:26.801Z,50.80
2019-04-26T09:00:00.487Z,50.50
2019-04-26T09:00:44.117Z,50.20
2019-04-26T09:01:23.059Z,50.00
2019-04-26T09:02:09.609Z,50.40
2019-04-26T09:02:50.551Z,50.20
2019-04-26T09:03:32.433Z,49.90
2019-04-26T09:04:07.603Z,50.30
2019-04-26T09:04:43.494Z,50.10
2019-04-26T09:05:36.658Z,49.60
2019-04-26T09:06:20.427Z,49.90
2019-04-26T09:07:04.326Z,49.90
2019-04-26T09:07:38.739Z,50.20
2019-04-26T09:08:12.178Z,49.60
2019-04-26T09:08:45.596Z,49.30
2019-04-26T09:09:22.606Z,49.70